createdAt,value
2023-01-17T00:02:13.770Z,91.14
2023-01-17T00:04:59.483Z,90.16
2023-01-17T00:07:46.299Z,90.04
2023-01-17T00:10:19.067Z,89.45
2023-01-17T00:12:49.511Z,88.79
2023-01-17T00:15:19.922Z,88.70
2023-01-17T00:17:49.126Z,88.50
2023-01-17T00:20:38.175Z,88.62
2023-01-17T00:23:26.108Z,87.42
2023-01-17T00:26:04.601Z,87.13
2023-01-17T00:28:35.277Z,85.87
2023-01-17T00:31:04.637Z,86.03
2023-01-17T00:33:32.100Z,85.17
2023-01-17T00:36:00.141Z,84.54
2023-01-17T00:38:29.751Z,83.81
2023-01-17T00:41:02.658Z,82.71
2023-01-17T00:43:49.736Z,82.39
2023-01-17T00:46:36.325Z,81.72
2023-01-17T00:49:22.842Z,81.86
2023-01-17T00:52:08.780Z,82.69
2023-01-17T00:54:54.665Z,83.12
2023-01-17T00:57:42.166Z,83.50
2023-01-17T01:00:30.226Z,83.81
2023-01-17T01:03:16.178Z,82.85
2023-01-17T01:06:02.212Z,83.02
2023-01-17T01:08:49.917Z,82.71
2023-01-17T01:11:39.254Z,82.26
2023-01-17T01:14:29.403Z,81.44
2023-01-17T01:17:15.478Z,81.15
2023-01-17T01:20:01.470Z,80.60
2023-01-17T01:22:47.328Z,79.65
2023-01-17T01:25:33.727Z,80.18
2023-01-17T01:28:23.880Z,78.96
2023-01-17T01:31:11.009Z,79.27
2023-01-17T01:33:39.565Z,78.85
2023-01-17T01:36:10.006Z,78.89
2023-01-17T01:38:38.771Z,78.01
2023-01-17T01:41:07.671Z,78.25
2023-01-17T01:43:47.066Z,78.70
2023-01-17T01:46:19.786Z,79.08
2023-01-17T01:48:53.794Z,78.20
2023-01-17T01:51:29.148Z,77.98
2023-01-17T01:54:03.776Z,79.11
2023-01-17T01:56:32.954Z,78.38
2023-01-17T01:59:04.234Z,77.93
2023-01-17T02:01:38.638Z,78.42
2023-01-17T02:04:09.997Z,78.87
2023-01-17T02:06:41.342Z,77.03
2023-01-17T02:09:12.443Z,77.08
2023-01-17T02:11:42.210Z,76.93
2023-01-17T02:14:16.367Z,77.08
2023-01-17T02:17:13.411Z,76.75
2023-01-17T02:20:51.113Z,77.44
2023-01-17T02:24:11.170Z,77.24
2023-01-17T02:27:04.738Z,77.05
2023-01-17T02:30:14.563Z,76.14
2023-01-17T02:32:56.527Z,76.51
2023-01-17T02:35:35.881Z,76.16
2023-01-17T02:38:28.264Z,75.81
2023-01-17T02:41:01.858Z,76.05
2023-01-17T02:43:30.614Z,75.61
2023-01-17T02:45:58.999Z,75.71
2023-01-17T02:48:32.179Z,75.39
2023-01-17T02:51:42.341Z,75.35
2023-01-17T02:54:29.136Z,75.80
2023-01-17T02:57:15.361Z,75.65
2023-01-17T02:59:56.988Z,75.60
2023-01-17T03:02:32.326Z,75.32
2023-01-17T03:05:05.502Z,75.30
2023-01-17T03:07:35.247Z,75.27
2023-01-17T03:10:05.424Z,75.43
2023-01-17T03:12:36.951Z,74.66
2023-01-17T03:15:10.858Z,74.78
2023-01-17T03:17:42.560Z,74.56
2023-01-17T03:20:13.564Z,74.84
2023-01-17T03:22:41.892Z,74.78
2023-01-17T03:25:10.538Z,74.92
2023-01-17T03:27:38.890Z,74.76
2023-01-17T03:30:09.171Z,74.35
2023-01-17T03:32:37.569Z,75.24
2023-01-17T03:35:07.139Z,75.54
2023-01-17T03:37:36.836Z,74.93
2023-01-17T03:40:06.200Z,75.04
2023-01-17T03:42:34.695Z,75.04
2023-01-17T03:45:03.191Z,75.86
2023-01-17T03:47:31.545Z,74.95
2023-01-17T03:49:59.879Z,74.73
2023-01-17T03:52:28.269Z,74.95
2023-01-17T03:54:58.048Z,74.69
2023-01-17T03:57:26.371Z,74.65
2023-01-17T03:59:54.802Z,74.89
2023-01-17T04:02:24.225Z,74.79
2023-01-17T04:04:52.719Z,75.52
2023-01-17T04:07:21.068Z,75.99
2023-01-17T04:09:49.518Z,76.13
2023-01-17T04:12:19.221Z,76.16
2023-01-17T04:14:48.258Z,75.94
2023-01-17T04:17:20.096Z,76.05
2023-01-17T04:19:48.877Z,76.68
2023-01-17T04:22:17.250Z,76.93
2023-01-17T04:24:45.611Z,77.27
2023-01-17T04:27:14.699Z,77.64
2023-01-17T04:29:46.602Z,77.71
2023-01-17T04:32:15.827Z,78.23
2023-01-17T04:34:44.149Z,77.39
2023-01-17T04:37:12.487Z,77.92
2023-01-17T04:39:40.831Z,78.42
2023-01-17T04:42:09.123Z,78.88
2023-01-17T04:44:37.472Z,78.77
2023-01-17T04:47:07.232Z,78.94
2023-01-17T04:49:35.598Z,79.40
2023-01-17T04:52:04.079Z,79.72
2023-01-17T04:54:32.583Z,79.50
2023-01-17T04:57:00.947Z,80.22
2023-01-17T04:59:29.344Z,80.55
2023-01-17T05:01:57.823Z,80.89
2023-01-17T05:04:27.633Z,81.40
2023-01-17T05:06:55.962Z,81.06
2023-01-17T05:09:24.492Z,81.06
2023-01-17T05:11:52.760Z,80.72
2023-01-17T05:14:21.139Z,81.15
2023-01-17T05:16:49.480Z,81.04
2023-01-17T05:19:19.633Z,81.01
2023-01-17T05:21:50.745Z,81.52
2023-01-17T05:24:19.928Z,82.08
2023-01-17T05:26:54.866Z,81.91
2023-01-17T05:29:23.677Z,81.43
2023-01-17T05:31:51.954Z,81.96
2023-01-17T05:34:20.316Z,82.05
2023-01-17T05:36:49.962Z,82.75
2023-01-17T05:39:18.394Z,82.76
2023-01-17T05:41:47.026Z,83.62
2023-01-17T05:44:16.307Z,84.12
2023-01-17T05:46:44.667Z,83.68
2023-01-17T05:49:13.085Z,84.47
2023-01-17T05:51:41.394Z,83.97
2023-01-17T05:54:11.106Z,84.06
2023-01-17T05:56:39.457Z,83.88
2023-01-17T05:59:07.795Z,83.37
2023-01-17T06:01:36.111Z,82.95
2023-01-17T06:04:04.497Z,83.05
2023-01-17T06:06:32.846Z,83.39
2023-01-17T06:09:01.291Z,84.48
2023-01-17T06:11:31.847Z,84.02
2023-01-17T06:14:00.186Z,83.75
2023-01-17T06:16:28.555Z,83.73
2023-01-17T06:18:56.906Z,83.69
2023-01-17T06:21:25.278Z,83.94
2023-01-17T06:23:56.409Z,84.15
2023-01-17T06:26:24.683Z,84.46
2023-01-17T06:28:54.407Z,84.40
2023-01-17T06:31:22.738Z,83.84
2023-01-17T06:33:51.138Z,84.48
2023-01-17T06:36:19.515Z,84.36
2023-01-17T06:38:51.647Z,84.00
2023-01-17T06:41:20.001Z,83.96
2023-01-17T06:43:48.442Z,84.55
2023-01-17T06:46:18.162Z,84.21
2023-01-17T06:48:48.752Z,84.34
2023-01-17T06:51:17.436Z,84.53
2023-01-17T06:53:45.985Z,85.32
2023-01-17T06:56:14.290Z,84.82
2023-01-17T06:58:42.660Z,85.07
2023-01-17T07:01:13.134Z,85.23
2023-01-17T07:03:43.287Z,85.50
2023-01-17T07:06:11.860Z,85.33
2023-01-17T07:08:40.471Z,84.97
2023-01-17T07:11:09.631Z,86.57
2023-01-17T07:13:39.511Z,86.82
2023-01-17T07:16:09.241Z,86.64
2023-01-17T07:18:37.639Z,86.68
2023-01-17T07:21:15.228Z,86.95
2023-01-17T07:23:43.664Z,86.70
2023-01-17T07:26:12.055Z,87.15
2023-01-17T07:28:40.444Z,88.36
2023-01-17T07:31:09.963Z,88.71
2023-01-17T07:33:38.370Z,88.59
2023-01-17T07:36:10.229Z,89.80
2023-01-17T07:38:38.777Z,88.64
2023-01-17T07:41:07.223Z,88.25
2023-01-17T07:43:36.673Z,88.76
2023-01-17T07:46:07.941Z,89.26
2023-01-17T07:48:36.998Z,89.39
2023-01-17T07:51:07.148Z,89.45
2023-01-17T07:53:35.588Z,89.04
2023-01-17T07:56:05.665Z,89.43
2023-01-17T07:58:35.571Z,89.98
2023-01-17T08:01:05.571Z,89.73
2023-01-17T08:03:36.663Z,88.98
2023-01-17T08:06:05.416Z,88.98
2023-01-17T08:08:35.273Z,88.67
2023-01-17T08:11:03.651Z,88.23
2023-01-17T08:13:31.971Z,88.22
2023-01-17T08:16:02.459Z,87.96
2023-01-17T08:18:31.256Z,86.94
2023-01-17T08:20:59.721Z,88.37
2023-01-17T08:23:28.085Z,88.33
2023-01-17T08:26:01.975Z,87.79
2023-01-17T08:28:30.484Z,87.38
2023-01-17T08:30:58.893Z,87.77
2023-01-17T08:33:27.215Z,87.26
2023-01-17T08:35:56.164Z,87.52
2023-01-17T08:38:24.756Z,87.30
2023-01-17T08:40:53.155Z,87.11
2023-01-17T08:43:22.967Z,86.83
2023-01-17T08:45:55.962Z,85.82
2023-01-17T08:48:24.653Z,85.86
2023-01-17T08:50:53.261Z,85.49
2023-01-17T08:53:23.191Z,85.47
2023-01-17T08:55:59.795Z,84.81
2023-01-17T08:58:31.491Z,85.35
2023-01-17T09:01:02.735Z,86.16
2023-01-17T09:03:31.840Z,86.30
2023-01-17T09:06:05.438Z,86.35
2023-01-17T09:08:34.705Z,86.60
2023-01-17T09:11:05.673Z,87.39
2023-01-17T09:13:35.480Z,86.62
2023-01-17T09:16:04.482Z,87.07
2023-01-17T09:18:34.322Z,87.08
2023-01-17T09:21:12.390Z,85.34
2023-01-17T09:23:41.027Z,84.84
2023-01-17T09:26:17.619Z,83.74
2023-01-17T09:28:47.441Z,81.53
2023-01-17T09:31:17.590Z,81.35
2023-01-17T09:33:46.262Z,82.55
2023-01-17T09:36:14.836Z,82.25
2023-01-17T09:38:43.620Z,81.60
2023-01-17T09:41:27.656Z,81.70
2023-01-17T09:44:05.825Z,81.13
2023-01-17T09:46:40.318Z,82.11
2023-01-17T09:49:14.083Z,81.26
2023-01-17T09:51:43.530Z,81.93
2023-01-17T09:54:23.033Z,81.83
2023-01-17T09:57:02.329Z,81.54
2023-01-17T09:59:45.630Z,80.45
2023-01-17T10:02:41.685Z,80.24
2023-01-17T10:05:33.269Z,77.18
2023-01-17T10:08:20.037Z,70.98
2023-01-17T10:11:15.170Z,72.59
2023-01-17T10:13:54.140Z,70.71
2023-01-17T10:16:38.851Z,70.75
2023-01-17T10:19:24.229Z,67.81
2023-01-17T10:22:17.417Z,69.62
2023-01-17T10:25:10.502Z,67.75
2023-01-17T10:27:43.269Z,65.49
2023-01-17T10:30:19.821Z,65.89
2023-01-17T10:32:50.838Z,62.93
2023-01-17T10:35:28.263Z,60.27
2023-01-17T10:37:59.799Z,58.63
2023-01-17T10:40:38.447Z,61.29
2023-01-17T10:43:16.247Z,61.06
2023-01-17T10:45:54.359Z,63.37
2023-01-17T10:48:39.947Z,61.62
2023-01-17T10:51:23.098Z,57.58
2023-01-17T10:54:18.064Z,56.97
2023-01-17T10:56:46.544Z,56.71
2023-01-17T10:59:30.642Z,54.95
2023-01-17T11:01:59.751Z,53.71
2023-01-17T11:04:37.188Z,52.10
2023-01-17T11:07:15.020Z,52.16
2023-01-17T11:09:45.674Z,52.90
2023-01-17T11:12:29.598Z,54.11
2023-01-17T11:15:05.391Z,58.25
2023-01-17T11:17:35.298Z,58.62
2023-01-17T11:20:21.084Z,58.90
2023-01-17T11:23:08.488Z,59.85
2023-01-17T11:25:37.221Z,59.48
2023-01-17T11:28:08.543Z,58.08
2023-01-17T11:30:36.929Z,57.72
2023-01-17T11:33:08.861Z,56.25
2023-01-17T11:35:45.468Z,54.10
2023-01-17T11:38:20.033Z,53.39
2023-01-17T11:40:49.972Z,51.73
2023-01-17T11:43:26.807Z,52.29
2023-01-17T11:46:10.500Z,52.06
2023-01-17T11:48:40.329Z,52.75
2023-01-17T11:51:29.809Z,52.52
2023-01-17T11:54:16.757Z,52.56
2023-01-17T11:56:46.444Z,50.96
2023-01-17T11:59:33.543Z,50.60
2023-01-17T12:02:38.546Z,49.86
2023-01-17T12:05:24.313Z,50.80
2023-01-17T12:08:05.154Z,49.09
2023-01-17T12:10:47.054Z,49.76
2023-01-17T12:13:42.659Z,49.59
2023-01-17T12:16:29.715Z,48.81
2023-01-17T12:19:17.939Z,48.63
2023-01-17T12:21:58.151Z,47.59
2023-01-17T12:25:04.189Z,47.08
2023-01-17T12:27:42.628Z,46.14
2023-01-17T12:30:31.928Z,46.75
2023-01-17T12:33:29.403Z,48.06
2023-01-17T12:36:02.766Z,46.18
2023-01-17T12:38:39.115Z,44.97
2023-01-17T12:41:14.684Z,44.78
2023-01-17T12:43:44.741Z,46.16
2023-01-17T12:46:21.224Z,46.42
2023-01-17T12:48:53.931Z,47.48
2023-01-17T12:51:29.471Z,49.35
2023-01-17T12:54:05.300Z,51.84
2023-01-17T12:56:41.512Z,50.87
2023-01-17T12:59:18.406Z,51.61
2023-01-17T13:01:57.864Z,51.46
2023-01-17T13:04:33.260Z,51.65
2023-01-17T13:07:13.743Z,49.81
2023-01-17T13:09:47.445Z,50.56
2023-01-17T13:12:20.656Z,51.92
2023-01-17T13:14:50.065Z,51.55
2023-01-17T13:17:34.007Z,52.60
2023-01-17T13:20:11.005Z,53.18
2023-01-17T13:22:40.571Z,52.84
2023-01-17T13:25:30.813Z,51.01
2023-01-17T13:28:22.943Z,52.41
2023-01-17T13:31:19.552Z,51.03
2023-01-17T13:34:16.215Z,51.42
2023-01-17T13:37:04.671Z,51.61
2023-01-17T13:40:05.812Z,50.27
2023-01-17T13:42:52.253Z,49.83
2023-01-17T13:45:24.387Z,50.36
2023-01-17T13:47:54.214Z,50.47
2023-01-17T13:50:50.474Z,50.41
2023-01-17T13:53:56.330Z,50.76
2023-01-17T13:56:38.849Z,50.08
2023-01-17T13:59:29.285Z,49.41
2023-01-17T14:01:59.145Z,49.63
2023-01-17T14:05:12.482Z,49.52
2023-01-17T14:07:48.580Z,49.50
2023-01-17T14:10:35.018Z,49.14
2023-01-17T14:13:05.541Z,49.63
2023-01-17T14:15:36.547Z,50.08
2023-01-17T14:18:08.214Z,50.10
2023-01-17T14:21:10.602Z,50.02
2023-01-17T14:24:04.468Z,50.01
2023-01-17T14:26:48.175Z,49.62
2023-01-17T14:29:47.851Z,50.79
2023-01-17T14:32:19.662Z,53.10
2023-01-17T14:34:52.631Z,53.92
2023-01-17T14:37:43.611Z,54.21
2023-01-17T14:40:19.779Z,52.69
2023-01-17T14:42:54.178Z,52.68
2023-01-17T14:45:28.282Z,53.56
2023-01-17T14:47:58.588Z,54.55
2023-01-17T14:50:31.431Z,55.91
2023-01-17T14:53:18.075Z,57.17
2023-01-17T14:56:00.583Z,57.28
2023-01-17T14:58:31.898Z,57.64
2023-01-17T15:01:03.501Z,58.10
2023-01-17T15:03:41.808Z,58.31
2023-01-17T15:06:17.991Z,58.62
2023-01-17T15:08:47.193Z,58.28
2023-01-17T15:11:22.378Z,58.09
2023-01-17T15:13:54.847Z,58.14
2023-01-17T15:16:26.595Z,58.63
2023-01-17T15:18:57.225Z,58.77
2023-01-17T15:21:30.993Z,58.50
2023-01-17T15:24:02.271Z,59.23
2023-01-17T15:26:43.451Z,59.88
2023-01-17T15:29:21.434Z,60.26
2023-01-17T15:31:54.062Z,60.39
2023-01-17T15:34:28.646Z,60.36
2023-01-17T15:37:00.845Z,60.57
2023-01-17T15:39:31.982Z,60.71
2023-01-17T15:42:04.636Z,60.94
2023-01-17T15:44:47.550Z,61.17
2023-01-17T15:47:33.287Z,60.92
2023-01-17T15:50:03.993Z,60.98
2023-01-17T15:52:33.729Z,61.67
2023-01-17T15:55:14.199Z,62.03
2023-01-17T15:57:47.676Z,63.14
2023-01-17T16:00:23.884Z,62.56
2023-01-17T16:02:56.193Z,62.64
2023-01-17T16:05:43.721Z,62.67
2023-01-17T16:08:39.588Z,62.59
2023-01-17T16:11:09.611Z,62.97
2023-01-17T16:13:42.191Z,63.42
2023-01-17T16:16:17.382Z,63.25
2023-01-17T16:18:47.611Z,62.97
2023-01-17T16:21:23.563Z,63.12
2023-01-17T16:23:54.048Z,63.43
2023-01-17T16:26:22.891Z,63.32
2023-01-17T16:28:51.869Z,62.90
2023-01-17T16:31:20.659Z,63.76
2023-01-17T16:33:51.741Z,63.38
2023-01-17T16:36:21.378Z,63.59
2023-01-17T16:38:53.177Z,63.27
2023-01-17T16:41:22.551Z,63.79
2023-01-17T16:44:01.210Z,64.31
2023-01-17T16:46:30.684Z,64.69
2023-01-17T16:49:01.669Z,64.74
2023-01-17T16:51:30.013Z,65.60
2023-01-17T16:53:59.763Z,64.53
2023-01-17T16:56:28.157Z,64.17
2023-01-17T16:58:56.637Z,65.03
2023-01-17T17:01:25.494Z,64.54
2023-01-17T17:03:53.862Z,64.63
2023-01-17T17:06:22.233Z,64.18
2023-01-17T17:08:50.573Z,64.17
2023-01-17T17:11:23.145Z,64.28
2023-01-17T17:13:52.724Z,64.51
2023-01-17T17:16:23.815Z,64.76
2023-01-17T17:18:57.376Z,64.92
2023-01-17T17:21:26.261Z,64.40
2023-01-17T17:23:58.136Z,64.77
2023-01-17T17:26:31.210Z,64.76
2023-01-17T17:29:00.135Z,64.18
2023-01-17T17:31:30.147Z,64.17
2023-01-17T17:34:07.319Z,63.45
2023-01-17T17:36:37.041Z,63.55
2023-01-17T17:39:09.267Z,63.73
2023-01-17T17:41:42.442Z,62.90
2023-01-17T17:44:10.937Z,63.55
2023-01-17T17:46:39.525Z,63.51
2023-01-17T17:49:07.924Z,64.22
2023-01-17T17:51:38.527Z,64.53
2023-01-17T17:54:10.140Z,65.30
2023-01-17T17:56:41.208Z,64.41
2023-01-17T17:59:12.567Z,63.91
2023-01-17T18:01:41.095Z,63.74
2023-01-17T18:04:12.313Z,64.58
2023-01-17T18:06:41.440Z,64.07
2023-01-17T18:09:12.122Z,65.06
2023-01-17T18:11:43.853Z,64.84
2023-01-17T18:14:15.458Z,65.11
2023-01-17T18:16:45.646Z,64.48
2023-01-17T18:19:16.138Z,66.14
2023-01-17T18:21:44.978Z,64.94
2023-01-17T18:24:16.037Z,64.69
2023-01-17T18:26:47.839Z,64.24
2023-01-17T18:29:18.816Z,63.67
2023-01-17T18:31:50.133Z,64.29
2023-01-17T18:34:23.799Z,64.64
2023-01-17T18:36:53.156Z,64.39
2023-01-17T18:39:24.402Z,64.79
2023-01-17T18:41:54.283Z,65.04
2023-01-17T18:44:22.906Z,65.85
2023-01-17T18:46:51.391Z,66.04
2023-01-17T18:49:20.076Z,66.24
2023-01-17T18:51:51.091Z,72.82
2023-01-17T18:54:21.993Z,69.86
2023-01-17T18:56:51.052Z,68.84
2023-01-17T18:59:21.564Z,65.46
2023-01-17T19:01:50.399Z,64.70
2023-01-17T19:04:19.330Z,67.38
2023-01-17T19:06:49.226Z,65.09
2023-01-17T19:09:18.201Z,66.20
2023-01-17T19:11:47.533Z,64.18
2023-01-17T19:14:16.135Z,61.17
2023-01-17T19:16:45.860Z,63.09
2023-01-17T19:19:16.486Z,63.08
2023-01-17T19:21:44.865Z,63.04
2023-01-17T19:24:15.497Z,64.59
2023-01-17T19:26:44.040Z,65.33
2023-01-17T19:29:12.479Z,63.42
2023-01-17T19:31:43.295Z,65.02
2023-01-17T19:34:14.790Z,64.16
2023-01-17T19:36:43.992Z,62.30
2023-01-17T19:39:12.581Z,63.29
2023-01-17T19:41:44.567Z,65.27
2023-01-17T19:44:15.163Z,67.12
2023-01-17T19:46:44.042Z,68.25
2023-01-17T19:49:13.770Z,69.44
2023-01-17T19:51:42.052Z,71.03
2023-01-17T19:54:10.635Z,71.66
2023-01-17T19:56:38.987Z,72.15
2023-01-17T19:59:07.344Z,72.68
2023-01-17T20:01:36.346Z,73.43
2023-01-17T20:04:05.907Z,74.16
2023-01-17T20:06:37.337Z,74.26
2023-01-17T20:09:07.062Z,75.51
2023-01-17T20:11:35.406Z,75.70
2023-01-17T20:14:05.511Z,76.08
2023-01-17T20:16:36.572Z,76.61
2023-01-17T20:19:04.979Z,76.38
2023-01-17T20:21:35.205Z,76.73
2023-01-17T20:24:04.289Z,76.80
2023-01-17T20:26:35.888Z,77.13
2023-01-17T20:29:10.473Z,77.07
2023-01-17T20:31:40.565Z,77.42
2023-01-17T20:34:11.627Z,77.02
2023-01-17T20:36:42.711Z,77.34
2023-01-17T20:39:13.728Z,77.32
2023-01-17T20:41:44.683Z,78.02
2023-01-17T20:44:15.318Z,78.02
2023-01-17T20:46:44.366Z,77.62
2023-01-17T20:49:16.061Z,77.98
2023-01-17T20:51:47.324Z,77.74
2023-01-17T20:54:18.597Z,77.83
2023-01-17T20:56:47.935Z,77.76
2023-01-17T20:59:18.673Z,77.68
2023-01-17T21:01:47.740Z,77.65
2023-01-17T21:04:16.828Z,77.60
2023-01-17T21:06:46.585Z,77.20
2023-01-17T21:09:17.268Z,77.15
2023-01-17T21:11:45.688Z,76.98
2023-01-17T21:14:14.575Z,76.58
2023-01-17T21:16:43.323Z,77.02
2023-01-17T21:19:15.835Z,76.65
2023-01-17T21:21:44.179Z,76.32
2023-01-17T21:24:18.451Z,76.59
2023-01-17T21:26:47.334Z,77.12
2023-01-17T21:29:16.441Z,76.86
2023-01-17T21:31:45.350Z,76.81
2023-01-17T21:34:14.716Z,76.91
2023-01-17T21:36:44.046Z,76.50
2023-01-17T21:39:17.126Z,76.99
2023-01-17T21:41:48.028Z,77.02
2023-01-17T21:44:20.336Z,77.44
2023-01-17T21:46:50.083Z,77.39
2023-01-17T21:49:19.191Z,77.28
2023-01-17T21:52:05.162Z,77.17
2023-01-17T21:54:52.337Z,76.94
2023-01-17T21:57:39.988Z,77.30
2023-01-17T22:00:14.446Z,77.44
2023-01-17T22:02:44.427Z,77.72
2023-01-17T22:05:13.366Z,77.40
2023-01-17T22:08:01.894Z,77.51
2023-01-17T22:10:31.593Z,77.94
2023-01-17T22:13:00.135Z,78.03
2023-01-17T22:15:28.556Z,78.08
2023-01-17T22:17:57.142Z,78.35
2023-01-17T22:20:25.775Z,78.62
2023-01-17T22:22:54.190Z,78.73
2023-01-17T22:25:23.352Z,79.07
2023-01-17T22:27:52.988Z,79.26
2023-01-17T22:30:21.495Z,79.26
2023-01-17T22:32:49.804Z,79.38
2023-01-17T22:35:18.312Z,79.39
2023-01-17T22:37:47.366Z,79.49
2023-01-17T22:40:16.058Z,79.81
2023-01-17T22:42:44.365Z,79.59
2023-01-17T22:45:14.854Z,79.73
2023-01-17T22:47:44.717Z,79.64
2023-01-17T22:50:13.971Z,79.81
2023-01-17T22:52:42.271Z,79.92
2023-01-17T22:55:12.171Z,79.86
2023-01-17T22:57:40.537Z,80.07
2023-01-17T23:00:14.518Z,80.37
2023-01-17T23:02:44.658Z,81.00
2023-01-17T23:05:13.057Z,81.15
2023-01-17T23:07:44.306Z,82.23
2023-01-17T23:10:34.896Z,82.72
2023-01-17T23:13:03.246Z,82.80
2023-01-17T23:15:49.002Z,82.95
2023-01-17T23:18:36.039Z,82.58
2023-01-17T23:21:04.359Z,82.46
2023-01-17T23:23:33.717Z,82.57
2023-01-17T23:26:02.396Z,82.67
2023-01-17T23:28:29.713Z,82.89
2023-01-17T23:31:05.010Z,82.97
2023-01-17T23:33:34.779Z,82.66
2023-01-17T23:36:03.083Z,83.04
2023-01-17T23:38:30.555Z,82.86
2023-01-17T23:41:20.881Z,82.98
2023-01-17T23:43:52.761Z,83.25
2023-01-17T23:46:25.375Z,83.37
2023-01-17T23:48:55.890Z,83.36
2023-01-17T23:51:24.300Z,82.79
2023-01-17T23:53:57.333Z,82.89
2023-01-17T23:56:25.893Z,82.64
2023-01-17T23:58:54.251Z,82.54
